Deep Seas — ZCPR4 — position and weather

sailwx.info

Track history (hours):
 
Tides and Currents Weather Stations Pressure Air Temp Water Temp Dewpoint Dewpoint Depression Visibility Wind Speed Wind Dir Waves Ship Positions

Deep Seas

Last reported at 2014-Sep-01 23:04 UTC. Time now 2014-Sep-21 14:12 UTC.
Position N 32°17' E 119°51'.
Warning: this ship's position is 19 days out of date.

Length 225 m; draft 7.3 m.

Type: Cargo ship. MMSI: 319138000.

Date/timePositionNaut miles runAvg speedWind from/ knotsBaromVisibWave heightAir tempDewpointWater temp
2014-Sep-01 23:04N 32°17' E 119°51'810.1
2014-Sep-01 22:14N 32°09' E 119°54'1 0.9
2014-Sep-01 21:29N 32°08' E 119°54'1 0.2
2014-Sep-01 18:33N 32°08' E 119°54'9 9.3
2014-Sep-01 17:34N 31°60' E 119°59'10 9.8
2014-Sep-01 16:34N 31°56' E 120°10'10 9.8
2014-Sep-01 15:34N 31°59' E 120°21'9 9.0
2014-Sep-01 14:34N 32°04' E 120°30'1010.4
2014-Sep-01 13:33N 32°00' E 120°41'1010.2
2014-Sep-01 12:33N 31°56' E 120°52'1111.0
2014-Sep-01 11:33N 31°47' E 120°59'2512.7
2014-Sep-01 09:33N 31°31' E 121°23'1010.1
2014-Sep-01 08:33N 31°25' E 121°32'1010.4
2014-Sep-01 07:33N 31°19' E 121°42'2812.4
2014-Sep-01 05:18N 31°03' E 122°09'7 8.9
2014-Sep-01 04:33N 31°03' E 122°17'5 4.7
2014-Sep-01 03:30N 31°02' E 122°22'1010.0
2014-Sep-01 02:33N 30°60' E 122°33'6 1.0
2014-Aug-31 20:29N 31°03' E 122°39'0 0.0
2014-Aug-31 17:29N 31°03' E 122°39'0 0.1
2014-Aug-31 14:29N 31°03' E 122°39'9 0.2
2014-Aug-29 17:26N 31°02' E 122°49'8 8.5
2014-Aug-29 16:30N 31°01' E 122°58'20 9.9
2014-Aug-29 14:29N 30°46' E 123°14'1812.6
2014-Aug-29 13:05N 30°29' E 123°12'612.2
2014-Aug-29 12:33N 30°22' E 123°10'1211.7
2014-Aug-29 11:33N 30°11' E 123°07'2611.3
2014-Aug-29 09:14N 29°45' E 123°02'18 2.0
2014-Aug-29 00:09N 29°28' E 122°56'0 0.5
2014-Aug-28 23:32N 29°28' E 122°56'1 0.7
2014-Aug-28 22:33N 29°29' E 122°56'3 0.9
2014-Aug-28 19:32N 29°31' E 122°56'0 0.3
2014-Aug-28 18:31N 29°32' E 122°55'0 0.1
2014-Aug-28 17:29N 29°32' E 122°55'1 0.5
2014-Aug-28 16:21N 29°31' E 122°55'1 0.9
2014-Aug-28 15:30N 29°30' E 122°55'2 1.0
2014-Aug-28 13:30N 29°29' E 122°57'5 1.3
2014-Aug-28 09:28N 29°31' E 123°03'6 0.6
2014-Aug-27 23:19N 29°37' E 123°02'2 1.1
2014-Aug-27 21:30N 29°39' E 123°01'2 1.5
2014-Aug-27 20:20N 29°41' E 122°59'15 1.2
2014-Aug-27 07:30N 29°39' E 122°42'1213.1
2014-Aug-27 06:34N 29°41' E 122°28'1212.1
2014-Aug-27 05:33N 29°47' E 122°16'1111.3
2014-Aug-27 04:34N 29°55' E 122°07'9 9.0
2014-Aug-27 03:33N 29°60' E 121°58'3 2.8
2014-Aug-27 02:29N 30°02' E 121°59'0 0.0
2014-Aug-27 00:29N 30°02' E 121°59'0 0.0
2014-Aug-26 22:05N 30°02' E 121°59'0 0.0
2014-Aug-26 19:17N 30°02' E 121°59'0 0.0
2014-Aug-26 17:29N 30°02' E 121°59'0 0.0
2014-Aug-26 13:29N 30°02' E 121°59'0 0.0
2014-Aug-26 11:17N 30°02' E 121°59'0 0.1
2014-Aug-26 10:29N 30°02' E 121°59'0 0.0
2014-Aug-26 09:23N 30°02' E 121°59'0 0.0
2014-Aug-26 08:17N 30°02' E 121°59'0 0.0
2014-Aug-26 07:29N 30°02' E 121°59'0 0.0
2014-Aug-26 06:11N 30°02' E 121°59'0 0.0
2014-Aug-26 05:29N 30°02' E 121°59'0 0.1
2014-Aug-26 04:29N 30°02' E 121°59'0 0.1
2014-Aug-26 03:29N 30°02' E 121°59'0 0.1
2014-Aug-26 02:29N 30°02' E 121°59'0 0.1
2014-Aug-26 01:29N 30°02' E 121°59'0 0.1
2014-Aug-26 00:29N 30°02' E 121°59'0 0.0
2014-Aug-25 23:23N 30°02' E 121°59'0 0.0
2014-Aug-25 22:17N 30°02' E 121°59'0 0.1
2014-Aug-25 21:29N 30°02' E 121°59'0 0.1
2014-Aug-25 20:29N 30°02' E 121°59'0 0.0
2014-Aug-25 19:29N 30°02' E 121°59'0 0.0
2014-Aug-25 18:29N 30°02' E 121°59'0 0.0
2014-Aug-25 17:23N 30°02' E 121°59'0 0.1
2014-Aug-25 16:29N 30°02' E 121°59'0 0.0
2014-Aug-25 15:29N 30°02' E 121°59'0 0.1
2014-Aug-25 14:29N 30°02' E 121°59'0 0.0
2014-Aug-25 13:29N 30°02' E 121°59'0 0.1
2014-Aug-25 12:29N 30°02' E 121°59'0 0.1
2014-Aug-25 11:29N 30°02' E 121°59'0 0.0
2014-Aug-25 10:29N 30°02' E 121°59'0 0.1
2014-Aug-25 09:29N 30°02' E 121°59'0 0.1
2014-Aug-25 08:29N 30°02' E 121°59'0 0.0
2014-Aug-25 07:29N 30°02' E 121°59'0 0.0
2014-Aug-25 06:29N 30°02' E 121°59'0 0.1
2014-Aug-25 05:29N 30°02' E 121°59'0 0.1
2014-Aug-25 04:29N 30°02' E 121°59'0 0.0
2014-Aug-25 03:29N 30°02' E 121°59'0 0.0
2014-Aug-25 02:29N 30°02' E 121°59'0 0.1
2014-Aug-25 01:29N 30°02' E 121°59'0 0.0
2014-Aug-25 00:17N 30°02' E 121°59'0 0.1
2014-Aug-24 23:29N 30°02' E 121°59'0 0.0
2014-Aug-24 22:23N 30°02' E 121°59'0 0.0
2014-Aug-24 19:29N 30°02' E 121°59'0 0.0
2014-Aug-24 18:29N 30°02' E 121°59'0 0.0
2014-Aug-24 17:29N 30°02' E 121°59'0 0.0
2014-Aug-24 16:17N 30°02' E 121°59'0 0.1
2014-Aug-24 15:29N 30°02' E 121°59'0 0.0
2014-Aug-24 14:23N 30°02' E 121°59'0 0.0
2014-Aug-24 13:29N 30°02' E 121°59'0 0.0
2014-Aug-24 12:23N 30°02' E 121°59'0 0.0
2014-Aug-24 11:29N 30°02' E 121°59'0 0.0
2014-Aug-24 10:29N 30°02' E 121°59'0 0.0
2014-Aug-24 09:29N 30°02' E 121°59'0 0.1
2014-Aug-24 08:29N 30°02' E 121°59'0 0.0
2014-Aug-24 07:29N 30°02' E 121°59'0 0.0
2014-Aug-24 06:23N 30°02' E 121°59'0 0.0
2014-Aug-24 05:29N 30°02' E 121°59'0 0.0
2014-Aug-24 04:29N 30°02' E 121°59'0 0.0
2014-Aug-24 03:29N 30°02' E 121°59'0 0.1
2014-Aug-24 02:29N 30°02' E 121°59'0 0.0
2014-Aug-24 01:29N 30°02' E 121°59'0 0.1
2014-Aug-24 00:29N 30°02' E 121°59'0 0.0
2014-Aug-23 23:23N 30°02' E 121°59'0 0.0
2014-Aug-23 22:29N 30°02' E 121°59'0 0.1
2014-Aug-23 21:29N 30°02' E 121°59'0 0.1
2014-Aug-23 20:29N 30°02' E 121°59'0 0.0
2014-Aug-23 19:29N 30°02' E 121°59'0 0.0
2014-Aug-23 03:29N 30°02' E 121°59'0 0.0
2014-Aug-23 02:29N 30°02' E 121°59'0 0.1
2014-Aug-23 01:29N 30°02' E 121°59'0 0.0
2014-Aug-23 00:29N 30°02' E 121°59'0 0.0
2014-Aug-22 23:29N 30°02' E 121°59'  
Track history (hours):
 
Tides and Currents Weather Stations Pressure Air Temp Water Temp Dewpoint Dewpoint Depression Visibility Wind Speed Wind Dir Waves Ship Positions

Deep Seas

Last reported at 2014-Sep-01 23:04 UTC. Time now 2014-Sep-21 14:12 UTC.
Position N 32°17' E 119°51'.
Warning: this ship's position is 19 days out of date.

Length 225 m; draft 7.3 m.

Type: Cargo ship. MMSI: 319138000.

Date/timePositionNaut miles runAvg speedWind from/ knotsBaromVisibWave heightAir tempDewpointWater temp
2014-Sep-01 23:04N 32°17' E 119°51'810.1
2014-Sep-01 22:14N 32°09' E 119°54'1 0.9
2014-Sep-01 21:29N 32°08' E 119°54'1 0.2
2014-Sep-01 18:33N 32°08' E 119°54'9 9.3
2014-Sep-01 17:34N 31°60' E 119°59'10 9.8
2014-Sep-01 16:34N 31°56' E 120°10'10 9.8
2014-Sep-01 15:34N 31°59' E 120°21'9 9.0
2014-Sep-01 14:34N 32°04' E 120°30'1010.4
2014-Sep-01 13:33N 32°00' E 120°41'1010.2
2014-Sep-01 12:33N 31°56' E 120°52'1111.0
2014-Sep-01 11:33N 31°47' E 120°59'2512.7
2014-Sep-01 09:33N 31°31' E 121°23'1010.1
2014-Sep-01 08:33N 31°25' E 121°32'1010.4
2014-Sep-01 07:33N 31°19' E 121°42'2812.4
2014-Sep-01 05:18N 31°03' E 122°09'7 8.9
2014-Sep-01 04:33N 31°03' E 122°17'5 4.7
2014-Sep-01 03:30N 31°02' E 122°22'1010.0
2014-Sep-01 02:33N 30°60' E 122°33'6 1.0
2014-Aug-31 20:29N 31°03' E 122°39'0 0.0
2014-Aug-31 17:29N 31°03' E 122°39'0 0.1
2014-Aug-31 14:29N 31°03' E 122°39'9 0.2
2014-Aug-29 17:26N 31°02' E 122°49'8 8.5
2014-Aug-29 16:30N 31°01' E 122°58'20 9.9
2014-Aug-29 14:29N 30°46' E 123°14'1812.6
2014-Aug-29 13:05N 30°29' E 123°12'612.2
2014-Aug-29 12:33N 30°22' E 123°10'1211.7
2014-Aug-29 11:33N 30°11' E 123°07'2611.3
2014-Aug-29 09:14N 29°45' E 123°02'18 2.0
2014-Aug-29 00:09N 29°28' E 122°56'0 0.5
2014-Aug-28 23:32N 29°28' E 122°56'1 0.7
2014-Aug-28 22:33N 29°29' E 122°56'3 0.9
2014-Aug-28 19:32N 29°31' E 122°56'0 0.3
2014-Aug-28 18:31N 29°32' E 122°55'0 0.1
2014-Aug-28 17:29N 29°32' E 122°55'1 0.5
2014-Aug-28 16:21N 29°31' E 122°55'1 0.9
2014-Aug-28 15:30N 29°30' E 122°55'2 1.0
2014-Aug-28 13:30N 29°29' E 122°57'5 1.3
2014-Aug-28 09:28N 29°31' E 123°03'6 0.6
2014-Aug-27 23:19N 29°37' E 123°02'2 1.1
2014-Aug-27 21:30N 29°39' E 123°01'2 1.5
2014-Aug-27 20:20N 29°41' E 122°59'15 1.2
2014-Aug-27 07:30N 29°39' E 122°42'1213.1
2014-Aug-27 06:34N 29°41' E 122°28'1212.1
2014-Aug-27 05:33N 29°47' E 122°16'1111.3
2014-Aug-27 04:34N 29°55' E 122°07'9 9.0
2014-Aug-27 03:33N 29°60' E 121°58'3 2.8
2014-Aug-27 02:29N 30°02' E 121°59'0 0.0
2014-Aug-27 00:29N 30°02' E 121°59'0 0.0
2014-Aug-26 22:05N 30°02' E 121°59'0 0.0
2014-Aug-26 19:17N 30°02' E 121°59'0 0.0
2014-Aug-26 17:29N 30°02' E 121°59'0 0.0
2014-Aug-26 13:29N 30°02' E 121°59'0 0.0
2014-Aug-26 11:17N 30°02' E 121°59'0 0.1
2014-Aug-26 10:29N 30°02' E 121°59'0 0.0
2014-Aug-26 09:23N 30°02' E 121°59'0 0.0
2014-Aug-26 08:17N 30°02' E 121°59'0 0.0
2014-Aug-26 07:29N 30°02' E 121°59'0 0.0
2014-Aug-26 06:11N 30°02' E 121°59'0 0.0
2014-Aug-26 05:29N 30°02' E 121°59'0 0.1
2014-Aug-26 04:29N 30°02' E 121°59'0 0.1
2014-Aug-26 03:29N 30°02' E 121°59'0 0.1
2014-Aug-26 02:29N 30°02' E 121°59'0 0.1
2014-Aug-26 01:29N 30°02' E 121°59'0 0.1
2014-Aug-26 00:29N 30°02' E 121°59'0 0.0
2014-Aug-25 23:23N 30°02' E 121°59'0 0.0
2014-Aug-25 22:17N 30°02' E 121°59'0 0.1
2014-Aug-25 21:29N 30°02' E 121°59'0 0.1
2014-Aug-25 20:29N 30°02' E 121°59'0 0.0
2014-Aug-25 19:29N 30°02' E 121°59'0 0.0
2014-Aug-25 18:29N 30°02' E 121°59'0 0.0
2014-Aug-25 17:23N 30°02' E 121°59'0 0.1
2014-Aug-25 16:29N 30°02' E 121°59'0 0.0
2014-Aug-25 15:29N 30°02' E 121°59'0 0.1
2014-Aug-25 14:29N 30°02' E 121°59'0 0.0
2014-Aug-25 13:29N 30°02' E 121°59'0 0.1
2014-Aug-25 12:29N 30°02' E 121°59'0 0.1
2014-Aug-25 11:29N 30°02' E 121°59'0 0.0
2014-Aug-25 10:29N 30°02' E 121°59'0 0.1
2014-Aug-25 09:29N 30°02' E 121°59'0 0.1
2014-Aug-25 08:29N 30°02' E 121°59'0 0.0
2014-Aug-25 07:29N 30°02' E 121°59'0 0.0
2014-Aug-25 06:29N 30°02' E 121°59'0 0.1
2014-Aug-25 05:29N 30°02' E 121°59'0 0.1
2014-Aug-25 04:29N 30°02' E 121°59'0 0.0
2014-Aug-25 03:29N 30°02' E 121°59'0 0.0
2014-Aug-25 02:29N 30°02' E 121°59'0 0.1
2014-Aug-25 01:29N 30°02' E 121°59'0 0.0
2014-Aug-25 00:17N 30°02' E 121°59'0 0.1
2014-Aug-24 23:29N 30°02' E 121°59'0 0.0
2014-Aug-24 22:23N 30°02' E 121°59'0 0.0
2014-Aug-24 19:29N 30°02' E 121°59'0 0.0
2014-Aug-24 18:29N 30°02' E 121°59'0 0.0
2014-Aug-24 17:29N 30°02' E 121°59'0 0.0
2014-Aug-24 16:17N 30°02' E 121°59'0 0.1
2014-Aug-24 15:29N 30°02' E 121°59'0 0.0
2014-Aug-24 14:23N 30°02' E 121°59'0 0.0
2014-Aug-24 13:29N 30°02' E 121°59'0 0.0
2014-Aug-24 12:23N 30°02' E 121°59'0 0.0
2014-Aug-24 11:29N 30°02' E 121°59'0 0.0
2014-Aug-24 10:29N 30°02' E 121°59'0 0.0
2014-Aug-24 09:29N 30°02' E 121°59'0 0.1
2014-Aug-24 08:29N 30°02' E 121°59'0 0.0
2014-Aug-24 07:29N 30°02' E 121°59'0 0.0
2014-Aug-24 06:23N 30°02' E 121°59'0 0.0
2014-Aug-24 05:29N 30°02' E 121°59'0 0.0
2014-Aug-24 04:29N 30°02' E 121°59'0 0.0
2014-Aug-24 03:29N 30°02' E 121°59'0 0.1
2014-Aug-24 02:29N 30°02' E 121°59'0 0.0
2014-Aug-24 01:29N 30°02' E 121°59'0 0.1
2014-Aug-24 00:29N 30°02' E 121°59'0 0.0
2014-Aug-23 23:23N 30°02' E 121°59'0 0.0
2014-Aug-23 22:29N 30°02' E 121°59'0 0.1
2014-Aug-23 21:29N 30°02' E 121°59'0 0.1
2014-Aug-23 20:29N 30°02' E 121°59'0 0.0
2014-Aug-23 19:29N 30°02' E 121°59'0 0.0
2014-Aug-23 03:29N 30°02' E 121°59'0 0.0
2014-Aug-23 02:29N 30°02' E 121°59'0 0.1
2014-Aug-23 01:29N 30°02' E 121°59'0 0.0
2014-Aug-23 00:29N 30°02' E 121°59'0 0.0
2014-Aug-22 23:29N 30°02' E 121°59'  

Dump ship's entire track history